Latest Coastal Weather Observations for Wynyard

IDT60701

Issued at 1:02 pm EDT Thursday 24 October 2019 (issued every 10 minutes, with the page automatically refreshed every 10 minutes)

About coastal observations | Map of coastal stations | Coastal observations for TAS | Marine services | Other Formats
Station Details ID: 091107 Name: WYNYARD AIRPORT Lat: -41.00 Lon: 145.73 Height: 12.0 m
Data from the previous 72 hours. | See also: Recent months at Wynyard
Date/Time
EDT
Wind Sea
Height
m
Swell Vis
km
Cloud Weather Temp
°C
Press
hPa
Rain since
9am
mm
Dir  Spd
kts
Gust
kts
Height
m
Period
s
Dir
24/01:00pm E 10 13 - - - - 10 Clear - 15.9 1014.0 0.0
24/12:30pm ENE 9 12 - - - - 10 - - 15.8 1014.5 0.0
24/12:00pm ENE 11 13 - - - - 10 - - 15.1 1014.7 0.0
24/11:30am ENE 8 11 - - - - 10 - - 15.3 1015.1 0.0
24/11:00am E 9 14 - - - - 10 - - 14.9 1015.3 0.0
24/10:30am E 9 11 - - - - 10 - - 15.2 1015.4 0.0
24/10:00am ENE 8 12 - - - - 10 - - 14.8 1015.3 0.0
24/09:30am E 9 11 - - - - 10 - - 14.4 1015.6 0.0
24/09:00am E 10 13 - - - - 10 Mostly clear - 14.5 1015.9 0.0
24/08:34am E 10 14 - - - - 10 Partly cloudy - 14.1 1016.2 0.0
24/08:30am E 10 14 - - - - 10 Partly cloudy - 13.7 1016.2 0.0
24/08:00am ESE 9 13 - - - - 10 Cloudy - 13.4 1016.4 0.0
24/07:30am E 9 12 - - - - 10 Cloudy - 12.7 1016.5 0.0
24/07:00am E 10 13 - - - - 10 Cloudy - 12.4 1016.4 0.0
24/06:30am E 11 13 - - - - 10 Cloudy - 12.2 1016.3 0.0
24/06:00am E 10 14 - - - - 10 Mostly cloudy - 12.4 1016.3 0.0
24/05:30am E 11 16 - - - - 10 Cloudy - 12.5 1016.0 0.0
24/05:00am ESE 10 12 - - - - 10 Cloudy - 12.5 1016.0 0.0
24/04:30am ESE 10 15 - - - - 10 Cloudy - 12.4 1016.2 0.0
24/04:00am ESE 8 12 - - - - 10 Cloudy - 12.0 1016.2 0.0
24/03:30am ESE 9 13 - - - - 10 Cloudy - 12.0 1016.4 0.0
24/03:00am ESE 10 15 - - - - 10 Cloudy - 12.3 1016.4 0.0
24/02:30am ESE 10 13 - - - - 10 Cloudy - 12.4 1016.6 0.0
24/02:18am ESE 11 17 - - - - 10 Partly cloudy - 12.7 1016.7 0.0
24/02:00am ESE 12 15 - - - - 10 - - 12.6 1016.9 0.0
24/01:30am ESE 7 9 - - - - 10 - - 11.5 1017.0 0.0
24/01:00am NE 1 3 - - - - 10 - - 10.1 1017.0 0.0
24/12:30am W 2 3 - - - - 10 - - 9.9 1016.9 0.0
24/12:00am W 4 5 - - - - 10 Mostly cloudy - 9.9 1016.7 0.0
 
Date/Time
EDT
Wind Sea
Height
m
Swell Vis
km
Cloud Weather Temp
°C
Press
hPa
Rain since
9am
mm
Dir  Spd
kts
Gust
kts
Height
m
Period
s
Dir
23/11:30pm SW 1 4 - - - - 10 - - 10.3 1016.8 0.0
23/11:00pm WSW 2 5 - - - - 10 - - 10.4 1017.0 0.0
23/10:30pm CALM 0 2 - - - - 10 - - 11.5 1017.1 0.0
23/10:00pm WSW 4 5 - - - - 10 - - 10.9 1017.2 0.0
23/09:30pm WSW 4 5 - - - - 10 - - 13.0 1017.5 0.0
23/09:00pm SW 4 5 - - - - 10 - - 14.4 1017.3 0.0
23/08:30pm W 9 10 - - - - 10 - - 14.4 1017.2 0.0
23/08:00pm WNW 10 11 - - - - 10 - - 17.0 1016.7 0.0
23/07:30pm WNW 11 13 - - - - 10 - - 17.9 1016.3 0.0
23/07:00pm WNW 10 12 - - - - 10 - - 17.6 1016.0 0.0
23/06:30pm WNW 12 14 - - - - 10 - - 17.9 1015.9 0.0
23/06:00pm NW 10 13 - - - - 10 Mostly cloudy - 18.4 1015.8 0.0
23/05:30pm NW 12 15 - - - - 10 - - 19.1 1015.9 0.0
23/05:00pm NW 12 16 - - - - 10 - - 19.8 1015.9 0.0
23/04:30pm NW 11 14 - - - - 10 - - 19.1 1016.1 0.0
23/04:00pm NW 13 17 - - - - 10 - - 15.8 1016.4 0.0
23/03:30pm NW 13 17 - - - - 10 - - 16.2 1016.8 0.0
23/03:00pm NW 15 18 - - - - 10 - - 17.1 1017.2 0.0
23/02:30pm NNW 10 13 - - - - 10 - - 17.0 1017.6 0.0
23/02:00pm NNW 9 14 - - - - 10 - - 17.2 1018.2 0.0
23/01:30pm NNW 9 12 - - - - 10 - - 16.6 1018.4 0.0
23/01:00pm NW 8 11 - - - - 10 - - 15.6 1018.7 0.0
23/12:30pm NW 9 12 - - - - 10 - - 15.7 1019.1 0.0
23/12:00pm NNW 8 11 - - - - 10 - - 15.1 1019.6 0.0
23/11:30am NE 6 8 - - - - 10 - - 13.4 1020.1 0.0
23/11:00am NNE 9 11 - - - - 10 - - 12.0 1020.2 0.0
23/10:30am NNE 7 9 - - - - 10 - - 12.6 1020.6 0.0
23/10:07am NE 5 7 - - - - 10 Partly cloudy - 12.6 1020.7 0.0
23/10:00am NNE 4 6 - - - - 10 Partly cloudy - 12.4 1020.8 0.0
23/09:30am E 2 4 - - - - 10 Cloudy - 11.3 1020.9 0.0
23/09:00am SSW 2 5 - - - - 10 Cloudy - 9.7 1020.9 0.0
23/08:30am NNW 2 4 - - - - 10 Cloudy - 8.7 1021.0 0.0
23/08:00am SW 3 5 - - - - 10 Cloudy - 7.5 1020.9 0.0
23/07:30am WNW 3 4 - - - - 10 Cloudy - 6.3 1020.3 0.0
23/07:00am W 5 6 - - - - 10 Partly cloudy - 4.3 1020.3 0.0
23/06:56am W 5 6 - - - - 10 Partly cloudy - 3.6 1020.3 0.0
23/06:30am WNW 4 4 - - - - 10 - - 2.9 1020.1 0.0
23/06:08am W 5 5 - - - - 10 Partly cloudy - 3.0 1020.1 0.0
23/06:00am W 4 6 - - - - 10 Mostly clear - 3.0 1020.2 0.0
23/05:30am W 4 5 - - - - 0.9 - - 4.0 1019.7 0.0
23/05:16am W 5 6 - - - - 5 - - 3.5 1019.8 0.0
23/05:00am WNW 4 5 - - - - 10 - - 4.0 1019.8 0.0
23/04:58am WNW 4 5 - - - - 10 - - 4.6 1019.8 0.0
23/04:36am W 5 6 - - - - 5 - - 3.8 1020.1 0.0
23/04:30am W 5 6 - - - - 10 - - 3.9 1020.1 0.0
23/04:00am WNW 5 6 - - - - 10 - - 5.7 1020.1 0.0
23/03:30am WSW 3 4 - - - - 10 - - 6.6 1020.2 0.0
23/03:00am W 6 7 - - - - 10 Cloudy - 6.6 1020.5 0.0
23/02:30am WSW 5 6 - - - - 10 - - 6.7 1020.7 0.0
23/02:00am WSW 5 7 - - - - 10 - - 6.8 1021.2 0.0
23/01:30am W 4 5 - - - - 10 - - 7.2 1021.4 0.0
23/01:00am WSW 4 5 - - - - 10 - - 7.2 1021.8 0.0
23/12:30am WSW 3 3 - - - - 10 - - 8.1 1021.9 0.0
23/12:00am W 4 5 - - - - 10 Mostly cloudy - 7.9 1022.2 0.0
 
Date/Time
EDT
Wind Sea
Height
m
Swell Vis
km
Cloud Weather Temp
°C
Press
hPa
Rain since
9am
mm
Dir  Spd
kts
Gust
kts
Height
m
Period
s
Dir
22/11:30pm SW 5 6 - - - - 10 - - 7.2 1022.3 0.0
22/11:00pm SW 1 4 - - - - 10 - - 7.7 1022.5 0.0
22/10:30pm SW 1 5 - - - - 10 - - 7.6 1022.6 0.0
22/10:00pm CALM 0 2 - - - - 10 - - 8.6 1022.7 0.0
22/09:30pm SW 3 4 - - - - 10 - - 8.8 1022.8 0.0
22/09:00pm SW 4 5 - - - - 10 Partly cloudy - 9.4 1022.7 0.0
22/08:30pm CALM 0 0 - - - - 10 - - 10.4 1022.6 0.0
22/08:00pm SSE 5 5 - - - - 10 - - 11.4 1022.4 0.0
22/07:30pm SE 3 4 - - - - 10 - - 12.3 1022.4 0.0
22/07:00pm ESE 3 4 - - - - 10 - - 13.2 1022.3 0.0
22/06:30pm E 3 5 - - - - 10 - - 13.6 1022.4 0.0
22/06:00pm NE 4 6 - - - - 10 - - 13.9 1022.2 0.0
22/05:30pm NE 6 8 - - - - 10 - - 13.9 1022.3 0.0
22/05:00pm NNE 5 7 - - - - 10 - - 14.5 1022.3 0.0
22/04:30pm NE 6 8 - - - - 10 - - 14.3 1022.6 0.0
22/04:00pm NNE 7 9 - - - - 10 - - 15.4 1022.8 0.0
22/03:30pm NE 6 10 - - - - 10 - - 15.4 1023.3 0.0
22/03:00pm ENE 7 9 - - - - 10 - - 14.7 1023.6 0.0
22/02:30pm ENE 8 10 - - - - 10 - - 14.8 1023.9 0.0
22/02:00pm ENE 7 10 - - - - 10 - - 14.7 1024.3 0.0
22/01:30pm E 8 13 - - - - 10 Partly cloudy - 14.4 1024.7 0.0
22/01:00pm ENE 9 12 - - - - 10 - - 14.4 1024.8 0.0
22/12:30pm ENE 8 11 - - - - 10 - - 13.9 1025.0 0.0
22/12:00pm E 8 12 - - - - 10 - - 14.0 1025.0 0.0
22/11:30am ENE 9 11 - - - - 10 - - 13.0 1025.4 0.0
22/11:09am ENE 9 12 - - - - 10 Partly cloudy - 13.5 1025.3 0.0
22/11:00am E 8 10 - - - - 10 Partly cloudy - 13.3 1025.4 0.0
22/10:30am ENE 8 10 - - - - 10 Cloudy - 12.8 1025.3 0.0
22/10:00am ENE 7 10 - - - - 10 Partly cloudy - 12.6 1025.0 0.0
22/09:30am ESE 4 8 - - - - 10 Partly cloudy - 12.0 1024.9 0.0
22/09:00am E 6 9 - - - - 10 - - 12.3 1025.1 0.2
22/08:30am CALM 0 4 - - - - 10 - - 11.6 1024.7 0.2
22/08:00am W 5 6 - - - - 10 - - 9.3 1024.4 0.2
22/07:30am W 6 7 - - - - 10 - - 7.6 1024.2 0.2
22/07:00am W 8 10 - - - - 10 - - 5.9 1023.8 0.2
22/06:30am WNW 9 12 - - - - 10 - - 5.0 1023.6 0.2
22/06:00am WNW 7 8 - - - - 10 - - 4.2 1023.4 0.2
22/05:30am WSW 6 7 - - - - 10 - - 2.9 1023.1 0.2
22/05:00am WSW 6 8 - - - - 10 - - 3.5 1023.1 0.2
22/04:30am WSW 7 8 - - - - 10 - - 3.6 1023.0 0.2
22/04:00am W 7 9 - - - - 10 - - 3.4 1023.2 0.2
22/03:30am WNW 8 9 - - - - 10 - - 4.7 1023.3 0.2
22/03:00am WNW 7 9 - - - - 10 - - 4.0 1023.1 0.2
22/02:30am W 6 8 - - - - 10 - - 4.4 1023.4 0.2
22/02:00am WNW 9 10 - - - - 10 - - 5.4 1023.5 0.2
22/01:30am WNW 8 9 - - - - 10 - - 6.0 1023.4 0.2
22/01:00am WNW 7 8 - - - - 10 - - 6.4 1023.8 0.2
22/12:30am WNW 5 6 - - - - 10 - - 6.8 1023.9 0.2
22/12:00am WNW 5 7 - - - - 10 - - 6.4 1023.9 0.2
 
Date/Time
EDT
Wind Sea
Height
m
Swell Vis
km
Cloud Weather Temp
°C
Press
hPa
Rain since
9am
mm
Dir  Spd
kts
Gust
kts
Height
m
Period
s
Dir
21/11:30pm WNW 7 9 - - - - 10 - - 6.5 1024.0 0.2
21/11:00pm WNW 8 10 - - - - 10 - - 8.7 1024.0 0.2
21/10:30pm WNW 8 10 - - - - 10 - - 8.6 1024.0 0.2
21/10:00pm W 8 11 - - - - 10 - - 9.2 1024.0 0.2
21/09:30pm W 8 10 - - - - 10 - - 9.5 1024.0 0.2
21/09:00pm W 8 10 - - - - 10 - - 10.3 1023.8 0.2
21/08:30pm WSW 10 13 - - - - 10 - - 11.3 1023.6 0.2
21/08:00pm WSW 11 17 - - - - 10 - - 12.8 1023.4 0.2
21/07:30pm WSW 11 18 - - - - 10 - - 14.5 1022.9 0.2
21/07:00pm WSW 12 19 - - - - 10 - - 16.6 1022.4 0.2
21/06:30pm W 14 17 - - - - 10 - - 17.5 1022.0 0.2
21/06:00pm WNW 13 19 - - - - 10 - - 18.9 1021.7 0.2
21/05:30pm W 15 21 - - - - 10 - - 19.6 1021.7 0.2
21/05:00pm W 14 19 - - - - 10 - - 20.7 1021.7 0.2
21/04:30pm W 16 20 - - - - 10 - - 21.0 1021.7 0.2
21/04:00pm W 14 20 - - - - 10 - - 21.9 1021.8 0.2
21/03:30pm WSW 11 18 - - - - 10 - - 22.1 1022.1 0.2
21/03:00pm SW 14 19 - - - - 10 - - 21.5 1022.4 0.2
21/02:30pm WSW 15 19 - - - - 10 - - 22.1 1022.7 0.2
21/02:00pm W 17 21 - - - - 10 - - 21.4 1022.9 0.2
21/01:30pm W 16 20 - - - - 10 - - 20.8 1023.1 0.2

Other formats

Comma delimited format used in spreadsheet applications
http://www.bom.gov.au/fwo/IDT60701/IDT60701.95957.axf

JavaScript Object Notation format (JSON) in row-major order
http://www.bom.gov.au/fwo/IDT60701/IDT60701.95957.json

Data quality

Most of these data are generated automatically and are frequently updated. Quality checks on data are not normally performed. It is possible for incorrect values to appear. Refer to information at About Latest Weather Observations and please check the disclaimer before using these data.